sensor_id;sensor_type;location;lat;lon;timestamp;P1;durP1;ratioP1;P2;durP2;ratioP2
46889;SDS011;32625;51.080;16.970;2023-07-20T00:01:55;4.15;;;2.38;;
46889;SDS011;32625;51.080;16.970;2023-07-20T00:04:22;6.57;;;2.50;;
46889;SDS011;32625;51.080;16.970;2023-07-20T00:06:50;3.25;;;2.00;;
46889;SDS011;32625;51.080;16.970;2023-07-20T00:09:17;4.60;;;2.22;;
46889;SDS011;32625;51.080;16.970;2023-07-20T00:11:48;7.15;;;2.70;;
46889;SDS011;32625;51.080;16.970;2023-07-20T00:14:19;6.60;;;2.58;;
46889;SDS011;32625;51.080;16.970;2023-07-20T00:16:47;5.75;;;2.38;;
46889;SDS011;32625;51.080;16.970;2023-07-20T00:19:23;4.57;;;2.42;;
46889;SDS011;32625;51.080;16.970;2023-07-20T00:21:51;5.80;;;2.40;;
46889;SDS011;32625;51.080;16.970;2023-07-20T00:24:18;5.03;;;2.20;;
46889;SDS011;32625;51.080;16.970;2023-07-20T00:26:46;8.80;;;3.30;;
46889;SDS011;32625;51.080;16.970;2023-07-20T00:29:15;7.40;;;2.53;;
46889;SDS011;32625;51.080;16.970;2023-07-20T00:31:42;3.60;;;2.55;;
46889;SDS011;32625;51.080;16.970;2023-07-20T00:34:10;6.00;;;2.70;;
46889;SDS011;32625;51.080;16.970;2023-07-20T00:36:39;4.75;;;2.30;;
46889;SDS011;32625;51.080;16.970;2023-07-20T00:39:07;6.13;;;2.38;;
46889;SDS011;32625;51.080;16.970;2023-07-20T00:41:34;5.18;;;2.30;;
46889;SDS011;32625;51.080;16.970;2023-07-20T00:44:01;4.05;;;2.38;;
46889;SDS011;32625;51.080;16.970;2023-07-20T00:46:29;5.18;;;2.10;;
46889;SDS011;32625;51.080;16.970;2023-07-20T00:48:56;6.90;;;2.67;;
46889;SDS011;32625;51.080;16.970;2023-07-20T00:51:24;7.25;;;2.80;;
46889;SDS011;32625;51.080;16.970;2023-07-20T00:53:53;4.25;;;2.25;;
46889;SDS011;32625;51.080;16.970;2023-07-20T00:56:21;7.03;;;2.53;;
46889;SDS011;32625;51.080;16.970;2023-07-20T00:58:49;3.33;;;2.35;;
46889;SDS011;32625;51.080;16.970;2023-07-20T01:01:17;3.20;;;2.38;;
46889;SDS011;32625;51.080;16.970;2023-07-20T01:03:46;4.15;;;2.75;;
46889;SDS011;32625;51.080;16.970;2023-07-20T01:12:40;4.53;;;2.58;;
46889;SDS011;32625;51.080;16.970;2023-07-20T01:14:43;4.13;;;2.67;;
46889;SDS011;32625;51.080;16.970;2023-07-20T01:17:11;4.10;;;2.83;;
46889;SDS011;32625;51.080;16.970;2023-07-20T01:19:39;7.03;;;2.70;;
46889;SDS011;32625;51.080;16.970;2023-07-20T01:22:10;4.47;;;2.60;;
46889;SDS011;32625;51.080;16.970;2023-07-20T01:33:43;4.50;;;2.50;;
46889;SDS011;32625;51.080;16.970;2023-07-20T01:36:12;4.60;;;2.65;;
46889;SDS011;32625;51.080;16.970;2023-07-20T01:38:41;4.55;;;2.75;;
46889;SDS011;32625;51.080;16.970;2023-07-20T01:41:09;5.18;;;2.75;;
46889;SDS011;32625;51.080;16.970;2023-07-20T01:43:37;6.75;;;3.10;;
46889;SDS011;32625;51.080;16.970;2023-07-20T01:46:05;4.40;;;2.55;;
46889;SDS011;32625;51.080;16.970;2023-07-20T01:48:32;4.97;;;2.67;;
46889;SDS011;32625;51.080;16.970;2023-07-20T01:51:00;4.50;;;2.67;;
46889;SDS011;32625;51.080;16.970;2023-07-20T01:53:28;5.82;;;2.70;;
46889;SDS011;32625;51.080;16.970;2023-07-20T01:55:56;6.80;;;2.65;;
46889;SDS011;32625;51.080;16.970;2023-07-20T01:58:23;3.67;;;2.47;;
46889;SDS011;32625;51.080;16.970;2023-07-20T02:00:51;3.63;;;2.42;;
46889;SDS011;32625;51.080;16.970;2023-07-20T02:03:18;3.67;;;2.53;;
46889;SDS011;32625;51.080;16.970;2023-07-20T02:05:48;3.60;;;2.35;;
46889;SDS011;32625;51.080;16.970;2023-07-20T02:08:15;4.85;;;2.70;;
46889;SDS011;32625;51.080;16.970;2023-07-20T02:10:45;3.97;;;2.47;;
46889;SDS011;32625;51.080;16.970;2023-07-20T02:13:13;6.90;;;2.83;;
46889;SDS011;32625;51.080;16.970;2023-07-20T02:15:41;5.03;;;2.30;;
46889;SDS011;32625;51.080;16.970;2023-07-20T02:18:09;5.25;;;2.35;;
46889;SDS011;32625;51.080;16.970;2023-07-20T02:20:37;5.10;;;2.53;;
46889;SDS011;32625;51.080;16.970;2023-07-20T02:23:04;5.97;;;2.88;;
46889;SDS011;32625;51.080;16.970;2023-07-20T02:25:31;5.82;;;3.38;;
46889;SDS011;32625;51.080;16.970;2023-07-20T02:27:59;3.65;;;2.47;;
46889;SDS011;32625;51.080;16.970;2023-07-20T02:30:26;4.30;;;2.67;;
46889;SDS011;32625;51.080;16.970;2023-07-20T02:32:54;3.88;;;2.70;;
46889;SDS011;32625;51.080;16.970;2023-07-20T02:35:25;4.53;;;2.80;;
46889;SDS011;32625;51.080;16.970;2023-07-20T02:37:52;8.13;;;3.10;;
46889;SDS011;32625;51.080;16.970;2023-07-20T02:40:20;4.40;;;2.38;;
46889;SDS011;32625;51.080;16.970;2023-07-20T02:42:47;6.60;;;2.35;;
46889;SDS011;32625;51.080;16.970;2023-07-20T02:45:15;4.13;;;2.85;;
46889;SDS011;32625;51.080;16.970;2023-07-20T02:47:42;6.30;;;2.97;;
46889;SDS011;32625;51.080;16.970;2023-07-20T02:50:10;4.47;;;2.95;;
46889;SDS011;32625;51.080;16.970;2023-07-20T02:52:40;8.82;;;2.40;;
46889;SDS011;32625;51.080;16.970;2023-07-20T02:55:07;8.15;;;3.40;;
46889;SDS011;32625;51.080;16.970;2023-07-20T02:57:35;4.15;;;2.55;;
46889;SDS011;32625;51.080;16.970;2023-07-20T03:00:03;4.53;;;3.38;;
46889;SDS011;32625;51.080;16.970;2023-07-20T03:02:32;4.40;;;2.50;;
46889;SDS011;32625;51.080;16.970;2023-07-20T03:04:59;3.88;;;2.63;;
46889;SDS011;32625;51.080;16.970;2023-07-20T03:07:27;7.50;;;2.70;;
46889;SDS011;32625;51.080;16.970;2023-07-20T03:09:55;5.10;;;2.72;;
46889;SDS011;32625;51.080;16.970;2023-07-20T03:12:22;6.50;;;3.20;;
46889;SDS011;32625;51.080;16.970;2023-07-20T03:14:51;7.82;;;3.35;;
46889;SDS011;32625;51.080;16.970;2023-07-20T03:17:18;3.63;;;2.50;;
46889;SDS011;32625;51.080;16.970;2023-07-20T03:19:47;5.13;;;3.00;;
46889;SDS011;32625;51.080;16.970;2023-07-20T03:22:14;5.43;;;2.78;;
46889;SDS011;32625;51.080;16.970;2023-07-20T03:24:42;4.40;;;2.47;;
46889;SDS011;32625;51.080;16.970;2023-07-20T03:27:09;6.18;;;3.47;;
46889;SDS011;32625;51.080;16.970;2023-07-20T03:29:36;5.93;;;2.85;;
46889;SDS011;32625;51.080;16.970;2023-07-20T03:32:05;5.78;;;2.83;;
46889;SDS011;32625;51.080;16.970;2023-07-20T03:34:33;5.80;;;3.28;;
46889;SDS011;32625;51.080;16.970;2023-07-20T03:37:00;5.28;;;2.80;;
46889;SDS011;32625;51.080;16.970;2023-07-20T03:39:27;8.32;;;3.35;;
46889;SDS011;32625;51.080;16.970;2023-07-20T03:41:54;5.47;;;3.05;;
46889;SDS011;32625;51.080;16.970;2023-07-20T03:44:21;8.23;;;2.83;;
46889;SDS011;32625;51.080;16.970;2023-07-20T03:46:49;11.60;;;4.28;;
46889;SDS011;32625;51.080;16.970;2023-07-20T03:49:16;7.47;;;2.72;;
46889;SDS011;32625;51.080;16.970;2023-07-20T03:51:43;5.20;;;2.55;;
46889;SDS011;32625;51.080;16.970;2023-07-20T03:54:10;8.27;;;2.58;;
46889;SDS011;32625;51.080;16.970;2023-07-20T03:56:37;5.90;;;2.83;;
46889;SDS011;32625;51.080;16.970;2023-07-20T03:59:05;4.03;;;2.85;;
46889;SDS011;32625;51.080;16.970;2023-07-20T04:01:32;8.63;;;2.55;;
46889;SDS011;32625;51.080;16.970;2023-07-20T04:04:06;4.35;;;2.30;;
46889;SDS011;32625;51.080;16.970;2023-07-20T04:06:35;6.25;;;3.17;;
46889;SDS011;32625;51.080;16.970;2023-07-20T04:09:03;6.72;;;2.70;;
46889;SDS011;32625;51.080;16.970;2023-07-20T04:11:31;7.93;;;3.65;;
46889;SDS011;32625;51.080;16.970;2023-07-20T04:13:58;6.93;;;3.50;;
46889;SDS011;32625;51.080;16.970;2023-07-20T04:16:26;5.22;;;3.10;;
46889;SDS011;32625;51.080;16.970;2023-07-20T04:18:57;6.60;;;3.28;;
46889;SDS011;32625;51.080;16.970;2023-07-20T04:21:26;4.88;;;3.33;;
46889;SDS011;32625;51.080;16.970;2023-07-20T04:23:54;11.80;;;4.28;;
46889;SDS011;32625;51.080;16.970;2023-07-20T04:26:22;6.95;;;3.80;;
46889;SDS011;32625;51.080;16.970;2023-07-20T04:28:49;7.80;;;3.35;;
46889;SDS011;32625;51.080;16.970;2023-07-20T04:31:32;5.68;;;3.03;;
46889;SDS011;32625;51.080;16.970;2023-07-20T04:34:00;7.05;;;3.45;;
46889;SDS011;32625;51.080;16.970;2023-07-20T04:36:28;10.75;;;4.05;;
46889;SDS011;32625;51.080;16.970;2023-07-20T04:38:55;6.93;;;3.78;;
46889;SDS011;32625;51.080;16.970;2023-07-20T04:41:23;7.85;;;3.50;;
46889;SDS011;32625;51.080;16.970;2023-07-20T04:43:54;5.40;;;3.33;;
46889;SDS011;32625;51.080;16.970;2023-07-20T04:46:27;6.72;;;3.53;;
46889;SDS011;32625;51.080;16.970;2023-07-20T04:48:56;7.72;;;3.22;;
46889;SDS011;32625;51.080;16.970;2023-07-20T04:51:25;5.57;;;3.45;;
46889;SDS011;32625;51.080;16.970;2023-07-20T04:53:54;10.60;;;4.15;;
46889;SDS011;32625;51.080;16.970;2023-07-20T04:56:22;6.65;;;3.88;;
46889;SDS011;32625;51.080;16.970;2023-07-20T04:58:53;7.72;;;4.22;;
46889;SDS011;32625;51.080;16.970;2023-07-20T05:01:20;7.10;;;3.85;;
46889;SDS011;32625;51.080;16.970;2023-07-20T05:03:47;12.52;;;4.45;;
46889;SDS011;32625;51.080;16.970;2023-07-20T05:06:15;8.27;;;4.68;;
46889;SDS011;32625;51.080;16.970;2023-07-20T05:08:43;6.10;;;4.45;;
46889;SDS011;32625;51.080;16.970;2023-07-20T05:11:11;7.10;;;3.97;;
46889;SDS011;32625;51.080;16.970;2023-07-20T05:13:39;13.00;;;3.90;;
46889;SDS011;32625;51.080;16.970;2023-07-20T05:16:07;6.57;;;4.30;;
46889;SDS011;32625;51.080;16.970;2023-07-20T05:18:34;9.15;;;4.78;;
46889;SDS011;32625;51.080;16.970;2023-07-20T05:21:02;7.55;;;4.10;;
46889;SDS011;32625;51.080;16.970;2023-07-20T05:23:30;8.75;;;4.25;;
46889;SDS011;32625;51.080;16.970;2023-07-20T05:25:58;12.43;;;4.35;;
46889;SDS011;32625;51.080;16.970;2023-07-20T05:28:26;11.32;;;5.28;;
46889;SDS011;32625;51.080;16.970;2023-07-20T05:30:53;10.55;;;4.65;;
46889;SDS011;32625;51.080;16.970;2023-07-20T05:33:21;9.60;;;4.80;;
46889;SDS011;32625;51.080;16.970;2023-07-20T05:35:48;8.05;;;5.20;;
46889;SDS011;32625;51.080;16.970;2023-07-20T05:38:16;7.13;;;4.50;;
46889;SDS011;32625;51.080;16.970;2023-07-20T05:40:43;11.30;;;4.95;;
46889;SDS011;32625;51.080;16.970;2023-07-20T05:43:11;14.73;;;5.00;;
46889;SDS011;32625;51.080;16.970;2023-07-20T05:45:41;14.30;;;5.45;;
46889;SDS011;32625;51.080;16.970;2023-07-20T05:48:09;11.07;;;5.35;;
46889;SDS011;32625;51.080;16.970;2023-07-20T05:50:38;8.55;;;4.95;;
46889;SDS011;32625;51.080;16.970;2023-07-20T05:53:09;11.20;;;5.20;;
46889;SDS011;32625;51.080;16.970;2023-07-20T05:55:37;12.40;;;5.28;;
46889;SDS011;32625;51.080;16.970;2023-07-20T05:58:05;10.30;;;5.75;;
46889;SDS011;32625;51.080;16.970;2023-07-20T06:00:33;13.95;;;6.22;;
46889;SDS011;32625;51.080;16.970;2023-07-20T06:03:00;11.90;;;6.85;;
46889;SDS011;32625;51.080;16.970;2023-07-20T06:05:29;15.82;;;6.25;;
46889;SDS011;32625;51.080;16.970;2023-07-20T06:07:57;8.07;;;5.80;;
46889;SDS011;32625;51.080;16.970;2023-07-20T06:10:24;16.05;;;6.70;;
46889;SDS011;32625;51.080;16.970;2023-07-20T06:12:53;9.90;;;5.82;;
46889;SDS011;32625;51.080;16.970;2023-07-20T06:15:31;12.13;;;5.93;;
46889;SDS011;32625;51.080;16.970;2023-07-20T06:18:01;10.60;;;6.13;;
46889;SDS011;32625;51.080;16.970;2023-07-20T06:20:28;13.27;;;5.78;;
46889;SDS011;32625;51.080;16.970;2023-07-20T06:22:56;15.95;;;5.95;;
46889;SDS011;32625;51.080;16.970;2023-07-20T06:25:23;15.77;;;7.20;;
46889;SDS011;32625;51.080;16.970;2023-07-20T06:27:50;13.98;;;5.57;;
46889;SDS011;32625;51.080;16.970;2023-07-20T06:30:18;6.88;;;5.22;;
46889;SDS011;32625;51.080;16.970;2023-07-20T06:32:45;12.63;;;5.93;;
46889;SDS011;32625;51.080;16.970;2023-07-20T06:35:13;12.52;;;5.65;;
46889;SDS011;32625;51.080;16.970;2023-07-20T06:37:40;11.52;;;5.78;;
46889;SDS011;32625;51.080;16.970;2023-07-20T06:40:08;9.30;;;4.90;;
46889;SDS011;32625;51.080;16.970;2023-07-20T06:42:38;6.90;;;5.75;;
46889;SDS011;32625;51.080;16.970;2023-07-20T06:45:09;11.55;;;5.68;;
46889;SDS011;32625;51.080;16.970;2023-07-20T06:47:39;8.02;;;5.40;;
46889;SDS011;32625;51.080;16.970;2023-07-20T06:50:07;12.65;;;5.45;;
46889;SDS011;32625;51.080;16.970;2023-07-20T06:52:34;8.55;;;5.40;;
46889;SDS011;32625;51.080;16.970;2023-07-20T06:55:01;10.98;;;5.35;;
46889;SDS011;32625;51.080;16.970;2023-07-20T06:57:31;8.07;;;4.65;;
46889;SDS011;32625;51.080;16.970;2023-07-20T06:59:59;8.13;;;5.03;;
46889;SDS011;32625;51.080;16.970;2023-07-20T07:02:26;10.75;;;4.93;;
46889;SDS011;32625;51.080;16.970;2023-07-20T07:04:53;6.95;;;4.28;;
46889;SDS011;32625;51.080;16.970;2023-07-20T07:07:25;7.90;;;4.57;;
46889;SDS011;32625;51.080;16.970;2023-07-20T07:09:53;5.78;;;5.07;;
46889;SDS011;32625;51.080;16.970;2023-07-20T07:12:20;10.85;;;4.60;;
46889;SDS011;32625;51.080;16.970;2023-07-20T07:14:48;8.27;;;4.20;;
46889;SDS011;32625;51.080;16.970;2023-07-20T07:17:15;7.68;;;4.35;;
46889;SDS011;32625;51.080;16.970;2023-07-20T07:19:45;10.77;;;4.45;;
46889;SDS011;32625;51.080;16.970;2023-07-20T07:22:15;8.02;;;4.25;;
46889;SDS011;32625;51.080;16.970;2023-07-20T07:24:42;11.00;;;4.30;;
46889;SDS011;32625;51.080;16.970;2023-07-20T07:27:09;9.20;;;4.03;;
46889;SDS011;32625;51.080;16.970;2023-07-20T07:29:37;8.98;;;4.38;;
46889;SDS011;32625;51.080;16.970;2023-07-20T07:32:05;7.47;;;4.63;;
46889;SDS011;32625;51.080;16.970;2023-07-20T07:34:32;9.18;;;5.07;;
46889;SDS011;32625;51.080;16.970;2023-07-20T07:37:01;11.48;;;4.45;;
46889;SDS011;32625;51.080;16.970;2023-07-20T07:39:28;7.07;;;4.50;;
46889;SDS011;32625;51.080;16.970;2023-07-20T07:41:59;14.00;;;4.60;;
46889;SDS011;32625;51.080;16.970;2023-07-20T07:44:26;8.27;;;3.97;;
46889;SDS011;32625;51.080;16.970;2023-07-20T07:46:53;6.32;;;3.97;;
46889;SDS011;32625;51.080;16.970;2023-07-20T07:49:21;9.50;;;3.47;;
46889;SDS011;32625;51.080;16.970;2023-07-20T07:51:48;7.10;;;3.95;;
46889;SDS011;32625;51.080;16.970;2023-07-20T07:54:15;5.45;;;3.30;;
46889;SDS011;32625;51.080;16.970;2023-07-20T07:56:43;7.55;;;3.90;;
46889;SDS011;32625;51.080;16.970;2023-07-20T07:59:11;5.93;;;4.03;;
46889;SDS011;32625;51.080;16.970;2023-07-20T08:01:38;5.82;;;3.50;;
46889;SDS011;32625;51.080;16.970;2023-07-20T08:04:05;9.50;;;3.10;;
46889;SDS011;32625;51.080;16.970;2023-07-20T08:06:33;5.13;;;3.08;;
46889;SDS011;32625;51.080;16.970;2023-07-20T08:09:00;7.22;;;3.13;;
46889;SDS011;32625;51.080;16.970;2023-07-20T08:11:28;5.53;;;3.30;;
46889;SDS011;32625;51.080;16.970;2023-07-20T08:13:57;7.40;;;3.20;;
46889;SDS011;32625;51.080;16.970;2023-07-20T08:16:24;2.78;;;2.28;;
46889;SDS011;32625;51.080;16.970;2023-07-20T08:18:52;3.53;;;2.72;;
46889;SDS011;32625;51.080;16.970;2023-07-20T08:21:20;4.50;;;2.42;;
46889;SDS011;32625;51.080;16.970;2023-07-20T08:23:47;5.30;;;2.40;;
46889;SDS011;32625;51.080;16.970;2023-07-20T08:26:14;4.47;;;3.13;;
46889;SDS011;32625;51.080;16.970;2023-07-20T08:28:42;5.65;;;2.40;;
46889;SDS011;32625;51.080;16.970;2023-07-20T08:31:10;5.50;;;2.55;;
46889;SDS011;32625;51.080;16.970;2023-07-20T08:33:38;5.45;;;2.63;;
46889;SDS011;32625;51.080;16.970;2023-07-20T08:36:05;4.35;;;3.22;;
46889;SDS011;32625;51.080;16.970;2023-07-20T08:38:37;3.65;;;2.85;;
46889;SDS011;32625;51.080;16.970;2023-07-20T08:41:04;3.95;;;2.90;;
46889;SDS011;32625;51.080;16.970;2023-07-20T08:43:31;5.88;;;3.28;;
46889;SDS011;32625;51.080;16.970;2023-07-20T08:46:00;14.75;;;3.47;;
46889;SDS011;32625;51.080;16.970;2023-07-20T08:48:29;3.17;;;2.75;;
46889;SDS011;32625;51.080;16.970;2023-07-20T08:50:57;2.75;;;2.30;;
46889;SDS011;32625;51.080;16.970;2023-07-20T08:53:27;3.35;;;2.70;;
46889;SDS011;32625;51.080;16.970;2023-07-20T08:55:56;4.45;;;2.42;;
46889;SDS011;32625;51.080;16.970;2023-07-20T08:58:24;3.88;;;2.90;;
46889;SDS011;32625;51.080;16.970;2023-07-20T09:00:53;4.07;;;2.92;;
46889;SDS011;32625;51.080;16.970;2023-07-20T09:03:22;2.50;;;2.30;;
46889;SDS011;32625;51.080;16.970;2023-07-20T09:05:49;2.40;;;2.20;;
46889;SDS011;32625;51.080;16.970;2023-07-20T09:08:16;4.47;;;2.05;;
46889;SDS011;32625;51.080;16.970;2023-07-20T09:10:43;2.65;;;2.10;;
46889;SDS011;32625;51.080;16.970;2023-07-20T09:13:15;6.25;;;3.28;;
46889;SDS011;32625;51.080;16.970;2023-07-20T09:15:46;8.10;;;3.80;;
46889;SDS011;32625;51.080;16.970;2023-07-20T09:18:23;7.38;;;3.72;;
46889;SDS011;32625;51.080;16.970;2023-07-20T09:20:52;6.00;;;3.55;;
46889;SDS011;32625;51.080;16.970;2023-07-20T09:23:19;5.32;;;3.45;;
46889;SDS011;32625;51.080;16.970;2023-07-20T09:25:47;3.60;;;2.95;;
46889;SDS011;32625;51.080;16.970;2023-07-20T09:28:17;4.85;;;2.65;;
46889;SDS011;32625;51.080;16.970;2023-07-20T09:30:44;3.30;;;2.53;;
46889;SDS011;32625;51.080;16.970;2023-07-20T09:33:21;2.83;;;2.50;;
46889;SDS011;32625;51.080;16.970;2023-07-20T09:35:52;5.65;;;2.80;;
46889;SDS011;32625;51.080;16.970;2023-07-20T09:38:22;3.08;;;2.13;;
46889;SDS011;32625;51.080;16.970;2023-07-20T09:40:50;2.40;;;1.92;;
46889;SDS011;32625;51.080;16.970;2023-07-20T09:43:22;2.63;;;1.75;;
46889;SDS011;32625;51.080;16.970;2023-07-20T09:45:52;3.92;;;2.45;;
46889;SDS011;32625;51.080;16.970;2023-07-20T09:48:25;4.47;;;2.00;;
46889;SDS011;32625;51.080;16.970;2023-07-20T09:50:56;2.45;;;1.83;;
46889;SDS011;32625;51.080;16.970;2023-07-20T09:53:24;2.08;;;1.80;;
46889;SDS011;32625;51.080;16.970;2023-07-20T09:55:53;4.05;;;2.00;;
46889;SDS011;32625;51.080;16.970;2023-07-20T09:58:21;2.00;;;1.67;;
46889;SDS011;32625;51.080;16.970;2023-07-20T10:00:48;2.47;;;1.40;;
46889;SDS011;32625;51.080;16.970;2023-07-20T10:03:20;1.42;;;1.33;;
46889;SDS011;32625;51.080;16.970;2023-07-20T10:05:54;1.80;;;1.55;;
46889;SDS011;32625;51.080;16.970;2023-07-20T10:08:25;1.92;;;1.55;;
46889;SDS011;32625;51.080;16.970;2023-07-20T10:10:59;1.93;;;1.50;;
46889;SDS011;32625;51.080;16.970;2023-07-20T10:13:29;1.90;;;1.50;;
46889;SDS011;32625;51.080;16.970;2023-07-20T10:15:59;4.25;;;1.60;;
46889;SDS011;32625;51.080;16.970;2023-07-20T10:21:19;1.80;;;1.40;;
46889;SDS011;32625;51.080;16.970;2023-07-20T10:23:52;2.30;;;1.10;;
46889;SDS011;32625;51.080;16.970;2023-07-20T10:26:21;1.92;;;1.20;;
46889;SDS011;32625;51.080;16.970;2023-07-20T10:28:49;3.35;;;1.55;;
46889;SDS011;32625;51.080;16.970;2023-07-20T10:31:17;2.15;;;1.50;;
46889;SDS011;32625;51.080;16.970;2023-07-20T10:33:44;2.97;;;1.73;;
46889;SDS011;32625;51.080;16.970;2023-07-20T10:36:12;4.55;;;1.58;;
46889;SDS011;32625;51.080;16.970;2023-07-20T10:38:45;1.40;;;1.17;;
46889;SDS011;32625;51.080;16.970;2023-07-20T10:41:41;4.75;;;1.52;;
46889;SDS011;32625;51.080;16.970;2023-07-20T10:44:09;1.85;;;1.20;;
46889;SDS011;32625;51.080;16.970;2023-07-20T10:49:11;1.95;;;1.73;;
46889;SDS011;32625;51.080;16.970;2023-07-20T10:51:43;2.92;;;1.67;;
46889;SDS011;32625;51.080;16.970;2023-07-20T10:56:44;3.17;;;1.70;;
46889;SDS011;32625;51.080;16.970;2023-07-20T11:01:57;4.18;;;1.40;;
46889;SDS011;32625;51.080;16.970;2023-07-20T11:07:15;2.65;;;1.48;;
46889;SDS011;32625;51.080;16.970;2023-07-20T11:09:43;2.83;;;1.70;;
46889;SDS011;32625;51.080;16.970;2023-07-20T11:12:18;2.38;;;1.85;;
46889;SDS011;32625;51.080;16.970;2023-07-20T11:14:54;1.90;;;1.60;;
46889;SDS011;32625;51.080;16.970;2023-07-20T11:17:32;2.85;;;1.67;;
46889;SDS011;32625;51.080;16.970;2023-07-20T11:20:00;3.63;;;1.70;;
46889;SDS011;32625;51.080;16.970;2023-07-20T11:22:32;4.22;;;1.75;;
46889;SDS011;32625;51.080;16.970;2023-07-20T11:25:00;3.33;;;1.75;;
46889;SDS011;32625;51.080;16.970;2023-07-20T11:27:27;2.00;;;1.67;;
46889;SDS011;32625;51.080;16.970;2023-07-20T11:29:55;4.25;;;1.60;;
46889;SDS011;32625;51.080;16.970;2023-07-20T11:32:23;4.15;;;1.90;;
46889;SDS011;32625;51.080;16.970;2023-07-20T11:34:51;6.47;;;2.00;;
46889;SDS011;32625;51.080;16.970;2023-07-20T11:37:19;5.45;;;2.13;;
46889;SDS011;32625;51.080;16.970;2023-07-20T11:39:46;5.05;;;2.10;;
46889;SDS011;32625;51.080;16.970;2023-07-20T11:42:14;4.10;;;2.65;;
46889;SDS011;32625;51.080;16.970;2023-07-20T11:44:44;4.15;;;3.38;;
46889;SDS011;32625;51.080;16.970;2023-07-20T11:47:12;5.97;;;3.10;;
46889;SDS011;32625;51.080;16.970;2023-07-20T11:49:40;4.10;;;3.70;;
46889;SDS011;32625;51.080;16.970;2023-07-20T11:52:10;5.18;;;3.22;;
46889;SDS011;32625;51.080;16.970;2023-07-20T11:54:40;4.38;;;3.53;;
46889;SDS011;32625;51.080;16.970;2023-07-20T11:57:20;5.80;;;3.85;;
46889;SDS011;32625;51.080;16.970;2023-07-20T11:59:57;4.72;;;4.30;;
46889;SDS011;32625;51.080;16.970;2023-07-20T12:02:38;4.78;;;4.00;;
46889;SDS011;32625;51.080;16.970;2023-07-20T12:05:06;5.47;;;3.83;;
46889;SDS011;32625;51.080;16.970;2023-07-20T12:07:35;5.80;;;3.47;;
46889;SDS011;32625;51.080;16.970;2023-07-20T12:10:46;5.00;;;3.00;;
46889;SDS011;32625;51.080;16.970;2023-07-20T12:12:54;4.40;;;2.83;;
46889;SDS011;32625;51.080;16.970;2023-07-20T12:15:30;3.00;;;2.70;;
46889;SDS011;32625;51.080;16.970;2023-07-20T12:17:59;2.47;;;2.28;;
46889;SDS011;32625;51.080;16.970;2023-07-20T12:20:28;3.53;;;2.20;;
46889;SDS011;32625;51.080;16.970;2023-07-20T12:22:56;5.18;;;2.22;;
46889;SDS011;32625;51.080;16.970;2023-07-20T12:25:45;2.50;;;1.98;;
46889;SDS011;32625;51.080;16.970;2023-07-20T12:28:14;3.05;;;2.00;;
46889;SDS011;32625;51.080;16.970;2023-07-20T12:30:43;2.53;;;1.85;;
46889;SDS011;32625;51.080;16.970;2023-07-20T12:33:11;3.55;;;2.08;;
46889;SDS011;32625;51.080;16.970;2023-07-20T12:35:42;2.08;;;1.90;;
46889;SDS011;32625;51.080;16.970;2023-07-20T12:38:10;2.45;;;1.73;;
46889;SDS011;32625;51.080;16.970;2023-07-20T12:40:37;1.67;;;1.58;;
46889;SDS011;32625;51.080;16.970;2023-07-20T12:43:04;6.30;;;1.92;;
46889;SDS011;32625;51.080;16.970;2023-07-20T12:45:31;3.78;;;2.28;;
46889;SDS011;32625;51.080;16.970;2023-07-20T12:47:59;2.78;;;1.90;;
46889;SDS011;32625;51.080;16.970;2023-07-20T12:50:26;2.63;;;2.40;;
46889;SDS011;32625;51.080;16.970;2023-07-20T12:52:54;2.42;;;2.22;;
46889;SDS011;32625;51.080;16.970;2023-07-20T12:55:21;2.97;;;2.22;;
46889;SDS011;32625;51.080;16.970;2023-07-20T12:57:48;5.18;;;2.55;;
46889;SDS011;32625;51.080;16.970;2023-07-20T13:00:16;2.17;;;1.70;;
46889;SDS011;32625;51.080;16.970;2023-07-20T13:02:43;3.28;;;2.08;;
46889;SDS011;32625;51.080;16.970;2023-07-20T13:05:10;3.30;;;1.98;;
46889;SDS011;32625;51.080;16.970;2023-07-20T13:07:38;1.92;;;1.70;;
46889;SDS011;32625;51.080;16.970;2023-07-20T13:10:09;2.15;;;1.95;;
46889;SDS011;32625;51.080;16.970;2023-07-20T13:12:38;2.53;;;2.22;;
46889;SDS011;32625;51.080;16.970;2023-07-20T13:15:06;2.83;;;2.00;;
46889;SDS011;32625;51.080;16.970;2023-07-20T13:17:35;2.65;;;1.88;;
46889;SDS011;32625;51.080;16.970;2023-07-20T13:20:03;5.25;;;1.70;;
46889;SDS011;32625;51.080;16.970;2023-07-20T13:22:33;3.40;;;2.20;;
46889;SDS011;32625;51.080;16.970;2023-07-20T13:25:00;2.38;;;2.10;;
46889;SDS011;32625;51.080;16.970;2023-07-20T13:27:28;1.58;;;1.48;;
46889;SDS011;32625;51.080;16.970;2023-07-20T13:29:55;2.72;;;1.92;;
46889;SDS011;32625;51.080;16.970;2023-07-20T13:32:23;1.58;;;1.48;;
46889;SDS011;32625;51.080;16.970;2023-07-20T13:34:51;2.25;;;1.30;;
46889;SDS011;32625;51.080;16.970;2023-07-20T13:37:18;1.50;;;1.40;;
46889;SDS011;32625;51.080;16.970;2023-07-20T13:39:47;2.38;;;1.50;;
46889;SDS011;32625;51.080;16.970;2023-07-20T13:42:15;1.73;;;1.58;;
46889;SDS011;32625;51.080;16.970;2023-07-20T13:44:45;3.05;;;1.50;;
46889;SDS011;32625;51.080;16.970;2023-07-20T13:47:13;1.40;;;1.20;;
46889;SDS011;32625;51.080;16.970;2023-07-20T13:49:43;2.50;;;1.33;;
46889;SDS011;32625;51.080;16.970;2023-07-20T13:52:13;1.10;;;1.00;;
46889;SDS011;32625;51.080;16.970;2023-07-20T13:54:45;2.78;;;1.30;;
46889;SDS011;32625;51.080;16.970;2023-07-20T13:57:15;1.08;;;1.00;;
46889;SDS011;32625;51.080;16.970;2023-07-20T13:59:43;1.40;;;1.20;;
46889;SDS011;32625;51.080;16.970;2023-07-20T14:02:13;1.00;;;0.82;;
46889;SDS011;32625;51.080;16.970;2023-07-20T14:04:44;1.48;;;1.20;;
46889;SDS011;32625;51.080;16.970;2023-07-20T14:07:12;1.60;;;1.10;;
46889;SDS011;32625;51.080;16.970;2023-07-20T14:09:42;3.40;;;1.60;;
46889;SDS011;32625;51.080;16.970;2023-07-20T14:12:12;1.42;;;0.98;;
46889;SDS011;32625;51.080;16.970;2023-07-20T14:14:43;2.45;;;0.90;;
46889;SDS011;32625;51.080;16.970;2023-07-20T14:17:11;1.88;;;1.10;;
46889;SDS011;32625;51.080;16.970;2023-07-20T14:19:39;2.20;;;1.30;;
46889;SDS011;32625;51.080;16.970;2023-07-20T14:22:08;1.88;;;1.05;;
46889;SDS011;32625;51.080;16.970;2023-07-20T14:24:38;1.45;;;1.10;;
46889;SDS011;32625;51.080;16.970;2023-07-20T14:27:05;1.20;;;0.90;;
46889;SDS011;32625;51.080;16.970;2023-07-20T14:29:32;1.90;;;1.30;;
46889;SDS011;32625;51.080;16.970;2023-07-20T14:32:03;0.90;;;0.90;;
46889;SDS011;32625;51.080;16.970;2023-07-20T14:34:32;1.20;;;0.95;;
46889;SDS011;32625;51.080;16.970;2023-07-20T14:37:05;4.72;;;1.00;;
46889;SDS011;32625;51.080;16.970;2023-07-20T14:39:32;1.10;;;1.00;;
46889;SDS011;32625;51.080;16.970;2023-07-20T14:41:59;1.17;;;0.90;;
46889;SDS011;32625;51.080;16.970;2023-07-20T14:44:26;4.50;;;0.98;;
46889;SDS011;32625;51.080;16.970;2023-07-20T14:46:53;0.90;;;0.90;;
46889;SDS011;32625;51.080;16.970;2023-07-20T14:49:39;0.93;;;0.90;;
46889;SDS011;32625;51.080;16.970;2023-07-20T14:52:06;0.90;;;0.90;;
46889;SDS011;32625;51.080;16.970;2023-07-20T14:54:36;1.45;;;0.85;;
46889;SDS011;32625;51.080;16.970;2023-07-20T14:57:04;1.42;;;1.15;;
46889;SDS011;32625;51.080;16.970;2023-07-20T14:59:31;1.25;;;1.00;;
46889;SDS011;32625;51.080;16.970;2023-07-20T15:01:58;1.83;;;1.05;;
46889;SDS011;32625;51.080;16.970;2023-07-20T15:04:25;1.10;;;0.82;;
46889;SDS011;32625;51.080;16.970;2023-07-20T15:06:53;1.13;;;0.95;;
46889;SDS011;32625;51.080;16.970;2023-07-20T15:09:21;3.80;;;1.20;;
46889;SDS011;32625;51.080;16.970;2023-07-20T15:11:48;1.08;;;0.90;;